Time;durP1;ratioP1;P1;durP2;ratioP2;P2;SDS_P1;SDS_P2;PMS_P1;PMS_P2;Temp;Humidity;BMP_temperature;BMP_pressure;BME280_temperature;BME280_humidity;BME280_pressure;Samples;Min_cycle;Max_cycle;Signal;HPM_P1;HPM_P2
2023/07/02 00:01:06;;;;;;;34.10;21.50;;;;;;;;;;108130;1251;25374;-79
2023/07/02 00:03:52;;;;;;;27.10;22.60;;;;;;;;;;108132;1251;22634;-80
2023/07/02 00:06:19;;;;;;;24.40;20.10;;;;;;;;;;108206;1251;27499;-79
2023/07/02 00:08:45;;;;;;;27.70;21.50;;;;;;;;;;108161;1251;23211;-79
2023/07/02 00:11:13;;;;;;;27.30;20.90;;;;;;;;;;108144;1251;22620;-79
2023/07/02 00:13:39;;;;;;;26.80;19.70;;;;;;;;;;108182;1251;22588;-79
2023/07/02 00:16:06;;;;;;;24.80;21.00;;;;;;;;;;108134;1251;22654;-79
2023/07/02 00:18:33;;;;;;;25.70;20.40;;;;;;;;;;108034;1251;24379;-79
2023/07/02 00:21:01;;;;;;;27.20;23.70;;;;;;;;;;108197;1251;22612;-80
2023/07/02 00:23:27;;;;;;;26.30;22.60;;;;;;;;;;109169;1251;22654;-80
2023/07/02 00:25:54;;;;;;;35.50;22.10;;;;;;;;;;108113;1250;22581;-80
2023/07/02 00:28:20;;;;;;;25.90;21.70;;;;;;;;;;108168;1251;22532;-80
2023/07/02 00:30:46;;;;;;;23.90;19.50;;;;;;;;;;108124;1251;22561;-80
2023/07/02 00:33:13;;;;;;;27.30;20.20;;;;;;;;;;108174;1251;24235;-80
2023/07/02 00:35:39;;;;;;;24.30;20.00;;;;;;;;;;108126;1251;24356;-80
2023/07/02 00:38:06;;;;;;;24.20;20.00;;;;;;;;;;108175;1251;22543;-80
2023/07/02 00:40:32;;;;;;;23.90;19.90;;;;;;;;;;108148;1249;22521;-80
2023/07/02 00:42:59;;;;;;;28.20;21.00;;;;;;;;;;108170;1251;25369;-80
2023/07/02 00:45:26;;;;;;;25.30;20.20;;;;;;;;;;108144;1254;22514;-80
2023/07/02 00:47:53;;;;;;;25.00;21.60;;;;;;;;;;108501;1251;22431;-80
2023/07/02 00:50:21;;;;;;;26.20;21.70;;;;;;;;;;108604;1250;23230;-80
2023/07/02 00:52:47;;;;;;;29.20;21.00;;;;;;;;;;108174;1251;25313;-80
2023/07/02 00:55:14;;;;;;;29.10;22.20;;;;;;;;;;108238;1251;22612;-80
2023/07/02 00:57:40;;;;;;;30.10;21.50;;;;;;;;;;108200;1251;22526;-80
2023/07/02 01:00:07;;;;;;;28.10;21.10;;;;;;;;;;108219;1251;24371;-80
2023/07/02 01:02:34;;;;;;;31.30;20.80;;;;;;;;;;108139;1251;22537;-80
2023/07/02 01:05:00;;;;;;;28.60;19.90;;;;;;;;;;108135;1254;23159;-80
2023/07/02 01:07:27;;;;;;;25.30;21.00;;;;;;;;;;108242;1251;25343;-80
2023/07/02 01:09:53;;;;;;;24.50;20.40;;;;;;;;;;108173;1251;22661;-80
2023/07/02 01:12:21;;;;;;;30.00;20.60;;;;;;;;;;108013;1251;22706;-80
2023/07/02 01:14:54;;;;;;;25.80;19.00;;;;;;;;;;108067;1254;22555;-80
2023/07/02 01:17:20;;;;;;;23.50;20.20;;;;;;;;;;108133;1251;25483;-80
2023/07/02 01:19:51;;;;;;;30.00;20.90;;;;;;;;;;108009;1251;23122;-80
2023/07/02 01:22:21;;;;;;;25.10;21.30;;;;;;;;;;108588;1251;22542;-80
2023/07/02 01:24:47;;;;;;;27.90;21.10;;;;;;;;;;108813;1251;22648;-80
2023/07/02 01:27:14;;;;;;;26.60;19.50;;;;;;;;;;108179;1251;23065;-80
2023/07/02 01:29:41;;;;;;;25.60;20.40;;;;;;;;;;108174;1251;25372;-80
2023/07/02 01:32:08;;;;;;;27.50;22.20;;;;;;;;;;108201;1250;22626;-80
2023/07/02 01:34:34;;;;;;;32.40;23.50;;;;;;;;;;108180;1254;25352;-80
2023/07/02 01:37:01;;;;;;;26.80;22.30;;;;;;;;;;108116;1251;26354;-80
2023/07/02 01:39:28;;;;;;;27.70;20.70;;;;;;;;;;108152;1251;22643;-80
2023/07/02 01:41:55;;;;;;;30.20;22.10;;;;;;;;;;108157;1251;22551;-80
2023/07/02 01:44:21;;;;;;;32.00;23.50;;;;;;;;;;108230;1251;22670;-80
2023/07/02 01:46:48;;;;;;;30.80;21.40;;;;;;;;;;108204;1254;22668;-80
2023/07/02 01:49:15;;;;;;;27.30;20.20;;;;;;;;;;108010;1251;22623;-80
2023/07/02 01:51:44;;;;;;;26.10;20.70;;;;;;;;;;108011;1251;22592;-80
2023/07/02 01:54:11;;;;;;;24.10;20.10;;;;;;;;;;108190;1251;25577;-80
2023/07/02 01:56:37;;;;;;;22.10;19.60;;;;;;;;;;108135;1251;22551;-80
2023/07/02 01:59:03;;;;;;;26.60;20.70;;;;;;;;;;108165;1251;22645;-80
2023/07/02 02:01:30;;;;;;;27.10;21.20;;;;;;;;;;108189;1251;22537;-80
2023/07/02 02:03:56;;;;;;;24.50;21.10;;;;;;;;;;108133;1254;25576;-80
2023/07/02 02:06:23;;;;;;;26.70;20.30;;;;;;;;;;108226;1251;23314;-80
2023/07/02 02:08:49;;;;;;;26.30;21.00;;;;;;;;;;108810;1250;24206;-80
2023/07/02 02:11:15;;;;;;;23.70;19.70;;;;;;;;;;108179;1251;22534;-80
2023/07/02 02:13:42;;;;;;;25.10;19.40;;;;;;;;;;108611;1251;22671;-80
2023/07/02 02:16:08;;;;;;;23.40;19.10;;;;;;;;;;108246;1251;22539;-80
2023/07/02 02:18:34;;;;;;;24.00;18.80;;;;;;;;;;108195;1251;22603;-80
2023/07/02 02:21:01;;;;;;;23.70;17.90;;;;;;;;;;108193;1251;24368;-80
2023/07/02 02:23:27;;;;;;;28.20;18.80;;;;;;;;;;108188;1252;22544;-80
2023/07/02 02:25:53;;;;;;;23.90;19.60;;;;;;;;;;108216;1250;22646;-80
2023/07/02 02:28:20;;;;;;;25.60;20.70;;;;;;;;;;108224;1251;25320;-80
2023/07/02 02:30:46;;;;;;;21.50;18.70;;;;;;;;;;108781;1251;22437;-80
2023/07/02 02:33:13;;;;;;;22.20;18.00;;;;;;;;;;109628;1251;22565;-80
2023/07/02 02:35:39;;;;;;;23.40;18.40;;;;;;;;;;108258;1250;22626;-79
2023/07/02 02:38:06;;;;;;;25.30;18.10;;;;;;;;;;108128;1251;25346;-81
2023/07/02 02:40:32;;;;;;;23.50;18.60;;;;;;;;;;108226;1250;22606;-80
2023/07/02 02:42:58;;;;;;;23.00;18.90;;;;;;;;;;108156;1251;22671;-80
2023/07/02 02:45:25;;;;;;;31.30;19.20;;;;;;;;;;108238;1250;24324;-80
2023/07/02 02:47:51;;;;;;;24.20;19.20;;;;;;;;;;108130;1251;23416;-80
2023/07/02 02:50:18;;;;;;;24.20;18.20;;;;;;;;;;108032;1251;22634;-80
2023/07/02 02:52:44;;;;;;;30.60;19.00;;;;;;;;;;108042;1251;22976;-80
2023/07/02 02:55:12;;;;;;;25.10;18.60;;;;;;;;;;108202;1250;22520;-80
2023/07/02 02:57:38;;;;;;;25.50;19.40;;;;;;;;;;108048;1251;24435;-80
2023/07/02 03:00:06;;;;;;;26.80;20.70;;;;;;;;;;108002;1251;23206;-81
2023/07/02 03:02:33;;;;;;;27.70;20.80;;;;;;;;;;108239;1251;24362;-80
2023/07/02 03:05:02;;;;;;;25.80;19.60;;;;;;;;;;108159;1254;22561;-81
2023/07/02 03:07:28;;;;;;;25.40;19.10;;;;;;;;;;108182;1251;22527;-80
2023/07/02 03:09:55;;;;;;;24.30;19.10;;;;;;;;;;108133;1251;22537;-81
2023/07/02 03:12:21;;;;;;;27.50;18.40;;;;;;;;;;108168;1251;25448;-80
2023/07/02 03:14:52;;;;;;;22.10;19.00;;;;;;;;;;107983;1251;22621;-80
2023/07/02 03:17:19;;;;;;;24.00;18.90;;;;;;;;;;108133;1251;22520;-80
2023/07/02 03:19:45;;;;;;;23.40;17.90;;;;;;;;;;108204;1251;22575;-80
2023/07/02 03:22:12;;;;;;;22.50;17.60;;;;;;;;;;108212;1250;23159;-80
2023/07/02 03:24:38;;;;;;;22.70;18.50;;;;;;;;;;108044;1250;22527;-80
2023/07/02 03:27:05;;;;;;;21.00;18.20;;;;;;;;;;108194;1250;22659;-80
2023/07/02 03:29:31;;;;;;;20.40;17.40;;;;;;;;;;108244;1251;25506;-80
2023/07/02 03:31:58;;;;;;;23.60;17.00;;;;;;;;;;108225;1254;25391;-80
2023/07/02 03:34:24;;;;;;;30.60;19.00;;;;;;;;;;108229;1251;22524;-80
2023/07/02 03:36:51;;;;;;;21.50;18.80;;;;;;;;;;108162;1252;22613;-80
2023/07/02 03:39:17;;;;;;;20.50;17.00;;;;;;;;;;108210;1251;25515;-80
2023/07/02 03:41:44;;;;;;;21.30;17.90;;;;;;;;;;108175;1251;25475;-80
2023/07/02 03:44:10;;;;;;;20.50;16.50;;;;;;;;;;108193;1251;25569;-80
2023/07/02 03:46:37;;;;;;;24.90;16.90;;;;;;;;;;108143;1254;25510;-81
2023/07/02 03:49:03;;;;;;;19.10;16.60;;;;;;;;;;108910;1251;24309;-81
2023/07/02 03:51:30;;;;;;;23.80;16.50;;;;;;;;;;108189;1252;22561;-80
2023/07/02 03:53:57;;;;;;;23.10;17.70;;;;;;;;;;108169;1251;23326;-81
2023/07/02 03:56:24;;;;;;;21.90;18.20;;;;;;;;;;108205;1251;23080;-80
2023/07/02 03:58:50;;;;;;;19.50;16.80;;;;;;;;;;108109;1251;25497;-80
2023/07/02 04:01:17;;;;;;;23.10;17.20;;;;;;;;;;108189;1251;22600;-81
2023/07/02 04:03:49;;;;;;;25.00;17.80;;;;;;;;;;108224;1250;22573;-80
2023/07/02 04:06:16;;;;;;;21.70;15.80;;;;;;;;;;108180;1251;22633;-80
2023/07/02 04:08:43;;;;;;;26.70;18.10;;;;;;;;;;108204;1251;22736;-80
2023/07/02 04:11:09;;;;;;;23.40;18.00;;;;;;;;;;108149;1253;22574;-80
2023/07/02 04:13:36;;;;;;;24.00;18.40;;;;;;;;;;108080;1251;22531;-80
2023/07/02 04:16:02;;;;;;;20.60;16.00;;;;;;;;;;108188;1251;24807;-80
2023/07/02 04:18:29;;;;;;;20.60;17.20;;;;;;;;;;108191;1251;22619;-81
2023/07/02 04:20:56;;;;;;;21.90;16.90;;;;;;;;;;108132;1251;22986;-81
2023/07/02 04:23:22;;;;;;;21.20;16.10;;;;;;;;;;108197;1250;22643;-81
2023/07/02 04:25:49;;;;;;;24.60;15.60;;;;;;;;;;108099;1252;23344;-80
2023/07/02 04:28:15;;;;;;;20.50;16.20;;;;;;;;;;108150;1251;22661;-80
2023/07/02 04:30:42;;;;;;;19.40;15.50;;;;;;;;;;108252;1252;22552;-80
2023/07/02 04:33:08;;;;;;;20.80;16.80;;;;;;;;;;108580;1250;22587;-81
2023/07/02 04:35:34;;;;;;;20.60;16.30;;;;;;;;;;108135;1251;22598;-81
2023/07/02 04:38:01;;;;;;;18.30;15.30;;;;;;;;;;108135;1256;23229;-80
2023/07/02 04:40:28;;;;;;;20.20;15.30;;;;;;;;;;108164;1251;25428;-81
2023/07/02 04:42:57;;;;;;;21.40;16.60;;;;;;;;;;108268;1251;22673;-81
2023/07/02 04:45:24;;;;;;;24.50;17.20;;;;;;;;;;108444;1251;22622;-81
2023/07/02 04:47:51;;;;;;;20.40;14.80;;;;;;;;;;108103;1249;22572;-80
2023/07/02 04:50:17;;;;;;;19.70;13.60;;;;;;;;;;108174;1250;24321;-81
2023/07/02 04:52:44;;;;;;;17.50;15.00;;;;;;;;;;108279;1251;23319;-81
2023/07/02 04:55:11;;;;;;;17.70;15.00;;;;;;;;;;108732;1251;22602;-81
2023/07/02 04:57:37;;;;;;;16.10;13.10;;;;;;;;;;108187;1251;24931;-80
2023/07/02 05:00:05;;;;;;;17.90;13.40;;;;;;;;;;108191;1251;22657;-80
2023/07/02 05:02:32;;;;;;;15.50;12.40;;;;;;;;;;108126;1251;25847;-80
2023/07/02 05:04:58;;;;;;;18.10;13.80;;;;;;;;;;108168;1251;22555;-79
2023/07/02 05:07:25;;;;;;;19.70;13.40;;;;;;;;;;108210;1252;22561;-80
2023/07/02 05:09:52;;;;;;;19.20;12.30;;;;;;;;;;108031;1251;23272;-80
2023/07/02 05:12:19;;;;;;;17.30;13.00;;;;;;;;;;108139;1250;22640;-79
2023/07/02 05:14:46;;;;;;;15.80;12.30;;;;;;;;;;108187;1251;22514;-80
2023/07/02 05:17:16;;;;;;;16.60;13.50;;;;;;;;;;108089;1251;22552;-80
2023/07/02 05:19:43;;;;;;;16.40;12.20;;;;;;;;;;108185;1251;22617;-80
2023/07/02 05:22:10;;;;;;;14.90;11.40;;;;;;;;;;108249;1250;26288;-79
2023/07/02 05:24:36;;;;;;;14.70;11.70;;;;;;;;;;108108;1251;22543;-80
2023/07/02 05:27:03;;;;;;;16.40;12.00;;;;;;;;;;108182;1251;22608;-80
2023/07/02 05:29:30;;;;;;;12.60;10.80;;;;;;;;;;108136;1251;25400;-80
2023/07/02 05:31:56;;;;;;;16.80;11.80;;;;;;;;;;108115;1254;22533;-80
2023/07/02 05:34:23;;;;;;;17.50;12.10;;;;;;;;;;108152;1251;23319;-80
2023/07/02 05:36:49;;;;;;;12.30;10.40;;;;;;;;;;108122;1250;25282;-80
2023/07/02 05:39:16;;;;;;;14.40;10.70;;;;;;;;;;108146;1251;22544;-80
2023/07/02 05:41:42;;;;;;;14.80;10.50;;;;;;;;;;108162;1249;25345;-80
2023/07/02 05:44:08;;;;;;;14.20;10.30;;;;;;;;;;108164;1251;24226;-80
2023/07/02 05:46:35;;;;;;;11.80;9.50;;;;;;;;;;108181;1251;22643;-80
2023/07/02 05:49:01;;;;;;;14.60;10.40;;;;;;;;;;108181;1254;25468;-80
2023/07/02 05:51:27;;;;;;;12.90;9.90;;;;;;;;;;108211;1251;22755;-80
2023/07/02 05:53:54;;;;;;;15.50;10.20;;;;;;;;;;108102;1251;22533;-80
2023/07/02 05:56:20;;;;;;;12.70;8.70;;;;;;;;;;108158;1253;24363;-80
2023/07/02 05:58:48;;;;;;;12.00;8.60;;;;;;;;;;108203;1250;22743;-79
2023/07/02 06:01:14;;;;;;;9.90;7.50;;;;;;;;;;108193;1250;22818;-79
2023/07/02 06:03:42;;;;;;;10.60;8.60;;;;;;;;;;108249;1251;25275;-80
2023/07/02 06:06:08;;;;;;;9.50;7.40;;;;;;;;;;108245;1251;26475;-80
2023/07/02 06:08:35;;;;;;;10.40;7.30;;;;;;;;;;108142;1249;23140;-80
2023/07/02 06:11:01;;;;;;;9.60;6.60;;;;;;;;;;108199;1251;24368;-80
2023/07/02 06:13:27;;;;;;;8.40;6.50;;;;;;;;;;108218;1251;22587;-80
2023/07/02 06:15:54;;;;;;;11.70;6.10;;;;;;;;;;108259;1250;22524;-80
2023/07/02 06:18:20;;;;;;;7.50;6.00;;;;;;;;;;108224;1253;24352;-80
2023/07/02 06:20:46;;;;;;;8.20;5.90;;;;;;;;;;108270;1251;23967;-80
2023/07/02 06:23:13;;;;;;;8.20;6.40;;;;;;;;;;108223;1253;22529;-80
2023/07/02 06:25:39;;;;;;;8.90;6.80;;;;;;;;;;108151;1251;25423;-80
2023/07/02 06:28:06;;;;;;;8.30;5.70;;;;;;;;;;108243;1251;22597;-80
2023/07/02 06:30:32;;;;;;;9.20;6.10;;;;;;;;;;108212;1252;22536;-80
2023/07/02 06:32:58;;;;;;;9.00;6.40;;;;;;;;;;108110;1251;25402;-80
2023/07/02 06:35:25;;;;;;;9.70;6.50;;;;;;;;;;108302;1250;22638;-80
2023/07/02 06:37:51;;;;;;;9.00;6.50;;;;;;;;;;108193;1250;23209;-80
2023/07/02 06:40:18;;;;;;;13.10;6.90;;;;;;;;;;108221;1252;23900;-80
2023/07/02 06:42:44;;;;;;;11.90;6.90;;;;;;;;;;108220;1251;22543;-80
2023/07/02 06:45:10;;;;;;;9.20;6.70;;;;;;;;;;108148;1257;25461;-80
2023/07/02 06:47:37;;;;;;;8.10;7.00;;;;;;;;;;108117;1251;23088;-80
2023/07/02 06:50:04;;;;;;;9.10;7.10;;;;;;;;;;108080;1251;25474;-80
2023/07/02 06:52:30;;;;;;;8.90;6.50;;;;;;;;;;108176;1251;25451;-80
2023/07/02 06:54:57;;;;;;;8.40;6.00;;;;;;;;;;108147;1251;22533;-80
2023/07/02 06:57:23;;;;;;;9.20;7.00;;;;;;;;;;108233;1252;25240;-80
2023/07/02 06:59:50;;;;;;;8.20;6.40;;;;;;;;;;108188;1251;22533;-80
2023/07/02 07:02:16;;;;;;;8.80;6.70;;;;;;;;;;108172;1251;22521;-80
2023/07/02 07:04:43;;;;;;;11.20;7.00;;;;;;;;;;108201;1251;22662;-81
2023/07/02 07:07:09;;;;;;;10.90;6.50;;;;;;;;;;108229;1253;136439;-81
2023/07/02 07:09:35;;;;;;;7.90;5.90;;;;;;;;;;108225;1251;22563;-81
2023/07/02 07:12:02;;;;;;;10.70;6.40;;;;;;;;;;108192;1250;22526;-80
2023/07/02 07:14:29;;;;;;;6.10;5.00;;;;;;;;;;108116;1255;25357;-80
2023/07/02 07:16:55;;;;;;;11.50;5.50;;;;;;;;;;108164;1251;22589;-80
2023/07/02 07:19:22;;;;;;;9.00;6.00;;;;;;;;;;108237;1250;22527;-80
2023/07/02 07:21:48;;;;;;;8.40;5.60;;;;;;;;;;108170;1251;22705;-80
2023/07/02 07:24:14;;;;;;;8.80;5.20;;;;;;;;;;108229;1251;22616;-80
2023/07/02 07:26:41;;;;;;;7.40;5.30;;;;;;;;;;108145;1251;23370;-81
2023/07/02 07:29:08;;;;;;;6.60;4.90;;;;;;;;;;108168;1251;22658;-80
2023/07/02 07:31:34;;;;;;;6.30;4.80;;;;;;;;;;108188;1251;22653;-80
2023/07/02 07:34:01;;;;;;;8.00;4.50;;;;;;;;;;108184;1254;22546;-80
2023/07/02 07:36:27;;;;;;;5.90;4.90;;;;;;;;;;108179;1251;24253;-80
2023/07/02 07:38:54;;;;;;;7.00;4.80;;;;;;;;;;108213;1251;22633;-80
2023/07/02 07:41:20;;;;;;;5.90;4.70;;;;;;;;;;108260;1251;22636;-81
2023/07/02 07:43:47;;;;;;;8.10;5.10;;;;;;;;;;108123;1252;25241;-80
2023/07/02 07:46:13;;;;;;;5.60;4.50;;;;;;;;;;108206;1253;22686;-81
2023/07/02 07:48:39;;;;;;;5.90;4.90;;;;;;;;;;108176;1251;22600;-81
2023/07/02 07:51:06;;;;;;;7.40;5.60;;;;;;;;;;108137;1252;22535;-81
2023/07/02 07:53:32;;;;;;;9.40;6.70;;;;;;;;;;108043;1253;24337;-81
2023/07/02 07:55:59;;;;;;;5.80;5.20;;;;;;;;;;108167;1250;25304;-80
2023/07/02 07:58:25;;;;;;;5.70;4.30;;;;;;;;;;108140;1252;26482;-80
2023/07/02 08:00:52;;;;;;;5.30;3.90;;;;;;;;;;108176;1249;22536;-80
2023/07/02 08:03:18;;;;;;;6.40;4.20;;;;;;;;;;108188;1253;22580;-80
2023/07/02 08:05:44;;;;;;;7.40;3.80;;;;;;;;;;108169;1252;22569;-80
2023/07/02 08:08:11;;;;;;;5.80;4.40;;;;;;;;;;108143;1253;22682;-80
2023/07/02 08:10:37;;;;;;;7.20;3.60;;;;;;;;;;108182;1253;25492;-80
2023/07/02 08:13:04;;;;;;;7.70;4.60;;;;;;;;;;108086;1256;25246;-80
2023/07/02 08:15:30;;;;;;;5.80;3.10;;;;;;;;;;108193;1251;23605;-80
2023/07/02 08:17:58;;;;;;;6.20;3.50;;;;;;;;;;108216;1252;27499;-80
2023/07/02 08:20:25;;;;;;;5.20;3.10;;;;;;;;;;108214;1253;24308;-81
2023/07/02 08:22:51;;;;;;;6.10;3.30;;;;;;;;;;108137;1251;24367;-81
2023/07/02 08:25:18;;;;;;;8.70;3.20;;;;;;;;;;108093;1251;22879;-81
2023/07/02 08:27:44;;;;;;;8.30;4.30;;;;;;;;;;108226;1249;22524;-80
2023/07/02 08:30:10;;;;;;;5.00;3.10;;;;;;;;;;108142;1254;22769;-81
2023/07/02 08:32:37;;;;;;;5.10;3.00;;;;;;;;;;108176;1253;23330;-80
2023/07/02 08:35:03;;;;;;;4.70;3.10;;;;;;;;;;108238;1251;24191;-80
2023/07/02 08:37:30;;;;;;;5.30;3.10;;;;;;;;;;108188;1252;22601;-80
2023/07/02 08:39:56;;;;;;;7.10;3.30;;;;;;;;;;108241;1254;22514;-80
2023/07/02 08:42:23;;;;;;;3.80;3.30;;;;;;;;;;108181;1250;22559;-80
2023/07/02 08:44:53;;;;;;;3.90;2.60;;;;;;;;;;108253;1249;25357;-80
2023/07/02 08:47:19;;;;;;;5.30;2.10;;;;;;;;;;108124;1252;23605;-80
2023/07/02 08:49:47;;;;;;;5.40;2.60;;;;;;;;;;108220;1252;25407;-80
2023/07/02 08:52:14;;;;;;;4.60;2.50;;;;;;;;;;108213;1250;24367;-80
2023/07/02 08:54:41;;;;;;;4.40;2.30;;;;;;;;;;108204;1253;25464;-80
2023/07/02 08:57:08;;;;;;;8.50;2.90;;;;;;;;;;108114;1251;22697;-80
2023/07/02 08:59:38;;;;;;;4.30;3.00;;;;;;;;;;108160;1251;22530;-80
2023/07/02 09:02:04;;;;;;;3.20;2.40;;;;;;;;;;108347;1250;22606;-81
2023/07/02 09:04:31;;;;;;;6.80;2.30;;;;;;;;;;108251;1254;22551;-81
2023/07/02 09:07:07;;;;;;;4.00;2.90;;;;;;;;;;108164;1250;22647;-81
2023/07/02 09:09:33;;;;;;;4.00;2.80;;;;;;;;;;108188;1253;22560;-81
2023/07/02 09:12:00;;;;;;;8.80;2.70;;;;;;;;;;108120;1253;22700;-81
2023/07/02 09:14:27;;;;;;;4.90;3.70;;;;;;;;;;108218;1253;22540;-81
2023/07/02 09:17:07;;;;;;;6.10;3.10;;;;;;;;;;108081;1257;23211;-81
2023/07/02 09:19:33;;;;;;;5.00;3.20;;;;;;;;;;108111;1249;24255;-81
2023/07/02 09:22:02;;;;;;;6.90;4.00;;;;;;;;;;108269;1253;23188;-81
2023/07/02 09:24:30;;;;;;;4.10;2.90;;;;;;;;;;108208;1251;23905;-81
2023/07/02 09:26:57;;;;;;;5.60;3.50;;;;;;;;;;108212;1253;22761;-81
2023/07/02 09:29:28;;;;;;;8.50;3.70;;;;;;;;;;110161;1251;22518;-81
2023/07/02 09:31:58;;;;;;;7.70;2.90;;;;;;;;;;108219;1255;25211;-81
2023/07/02 09:34:28;;;;;;;5.20;3.20;;;;;;;;;;108180;1253;23311;-81
2023/07/02 09:36:55;;;;;;;4.70;3.20;;;;;;;;;;108247;1253;22540;-81
2023/07/02 09:39:25;;;;;;;4.40;3.40;;;;;;;;;;108165;1250;24218;-81
2023/07/02 09:41:51;;;;;;;5.50;3.30;;;;;;;;;;108228;1255;22614;-80
2023/07/02 09:44:18;;;;;;;5.60;3.50;;;;;;;;;;108258;1251;22518;-81
2023/07/02 09:46:49;;;;;;;5.10;2.90;;;;;;;;;;108114;1253;25324;-81
2023/07/02 09:49:16;;;;;;;6.40;3.70;;;;;;;;;;110587;1257;22579;-81
2023/07/02 09:51:43;;;;;;;7.20;3.10;;;;;;;;;;110696;1253;22362;-81
2023/07/02 09:54:10;;;;;;;4.30;3.70;;;;;;;;;;110525;1251;25533;-81
2023/07/02 09:56:36;;;;;;;4.50;2.60;;;;;;;;;;108228;1253;22635;-81
2023/07/02 09:59:02;;;;;;;8.20;3.60;;;;;;;;;;108190;1251;22659;-81
2023/07/02 10:01:29;;;;;;;4.90;3.10;;;;;;;;;;108270;1251;22559;-81
2023/07/02 10:03:55;;;;;;;7.10;3.80;;;;;;;;;;108191;1252;23116;-82
2023/07/02 10:06:22;;;;;;;5.20;3.10;;;;;;;;;;108214;1253;25496;-81
2023/07/02 10:08:54;;;;;;;4.80;3.30;;;;;;;;;;109556;1250;22235;-81
2023/07/02 10:11:21;;;;;;;7.30;3.30;;;;;;;;;;109340;1253;24212;-81
2023/07/02 10:13:59;;;;;;;3.30;2.70;;;;;;;;;;108197;1250;24333;-81
2023/07/02 10:16:27;;;;;;;5.60;2.60;;;;;;;;;;108268;1250;22699;-81
2023/07/02 10:18:54;;;;;;;5.60;3.00;;;;;;;;;;108092;1253;22660;-82
2023/07/02 10:21:20;;;;;;;3.10;2.50;;;;;;;;;;108183;1256;23086;-81
2023/07/02 10:23:47;;;;;;;6.90;3.00;;;;;;;;;;108063;1252;25506;-81
2023/07/02 10:26:14;;;;;;;4.10;2.80;;;;;;;;;;108268;1253;22615;-81
2023/07/02 10:28:40;;;;;;;4.50;3.20;;;;;;;;;;108212;1251;25477;-81
2023/07/02 10:31:20;;;;;;;4.60;2.50;;;;;;;;;;108224;1250;23358;-80
2023/07/02 10:33:46;;;;;;;7.80;3.20;;;;;;;;;;108197;1251;24254;-81
2023/07/02 10:36:23;;;;;;;8.10;3.80;;;;;;;;;;108291;1250;24219;-80
2023/07/02 10:38:50;;;;;;;3.60;2.30;;;;;;;;;;107872;1251;24381;-81
2023/07/02 10:41:43;;;;;;;9.70;3.90;;;;;;;;;;108085;1251;22539;-81
2023/07/02 10:44:09;;;;;;;7.20;4.00;;;;;;;;;;108140;1251;25461;-81
2023/07/02 10:46:43;;;;;;;4.80;2.70;;;;;;;;;;108137;1251;22554;-81
2023/07/02 10:49:11;;;;;;;4.10;3.50;;;;;;;;;;108141;1253;25376;-81
2023/07/02 10:51:38;;;;;;;7.00;4.70;;;;;;;;;;108164;1252;22557;-81
2023/07/02 10:54:05;;;;;;;4.00;2.90;;;;;;;;;;108165;1251;25495;-81
2023/07/02 10:56:31;;;;;;;4.40;2.70;;;;;;;;;;108055;1251;22528;-81
2023/07/02 10:58:58;;;;;;;3.10;2.10;;;;;;;;;;108139;1251;23260;-81
2023/07/02 11:01:27;;;;;;;3.20;2.00;;;;;;;;;;108162;1251;24240;-81
2023/07/02 11:04:00;;;;;;;5.30;2.30;;;;;;;;;;108049;1252;22656;-81
2023/07/02 11:06:27;;;;;;;3.60;2.80;;;;;;;;;;108101;1257;22523;-81
2023/07/02 11:08:55;;;;;;;4.80;3.30;;;;;;;;;;108253;1253;22560;-81
2023/07/02 11:11:22;;;;;;;3.40;1.90;;;;;;;;;;108083;1252;23029;-81
2023/07/02 11:13:51;;;;;;;4.20;2.20;;;;;;;;;;108196;1252;22540;-81
2023/07/02 11:16:18;;;;;;;5.50;2.10;;;;;;;;;;108150;1251;23182;-81
2023/07/02 11:18:44;;;;;;;6.30;2.40;;;;;;;;;;108142;1255;24338;-81
2023/07/02 11:21:11;;;;;;;4.60;2.60;;;;;;;;;;108161;1253;25533;-81
2023/07/02 11:23:37;;;;;;;3.00;2.00;;;;;;;;;;108190;1253;23155;-81
2023/07/02 11:26:04;;;;;;;2.60;1.90;;;;;;;;;;108121;1251;22542;-81
2023/07/02 11:28:31;;;;;;;3.90;2.30;;;;;;;;;;108178;1251;22619;-81
2023/07/02 11:30:57;;;;;;;2.20;1.80;;;;;;;;;;108184;1252;24359;-81
2023/07/02 11:33:34;;;;;;;2.80;1.80;;;;;;;;;;108184;1253;22539;-81
2023/07/02 11:36:00;;;;;;;3.20;2.30;;;;;;;;;;108187;1251;22549;-81
2023/07/02 11:38:27;;;;;;;3.10;2.20;;;;;;;;;;108135;1253;23179;-81
2023/07/02 11:40:53;;;;;;;2.70;2.20;;;;;;;;;;108153;1255;22536;-82
2023/07/02 11:43:19;;;;;;;6.10;2.60;;;;;;;;;;108161;1255;25271;-81
2023/07/02 11:45:46;;;;;;;2.80;1.90;;;;;;;;;;108271;1253;25380;-81
2023/07/02 11:48:12;;;;;;;3.50;1.90;;;;;;;;;;108166;1253;22554;-81
2023/07/02 11:50:39;;;;;;;8.40;2.20;;;;;;;;;;108188;1252;23745;-81
2023/07/02 11:53:05;;;;;;;2.30;1.90;;;;;;;;;;108226;1255;22585;-81
2023/07/02 11:55:31;;;;;;;3.10;1.90;;;;;;;;;;108075;1253;22620;-80
2023/07/02 11:57:58;;;;;;;2.60;1.80;;;;;;;;;;108128;1253;25499;-81
2023/07/02 12:00:25;;;;;;;3.30;2.00;;;;;;;;;;108106;1251;23299;-81
2023/07/02 12:02:52;;;;;;;2.10;1.50;;;;;;;;;;108014;1256;22614;-81
2023/07/02 12:05:18;;;;;;;2.60;1.60;;;;;;;;;;108143;1255;22566;-81
2023/07/02 12:07:46;;;;;;;2.70;1.30;;;;;;;;;;108119;1252;23369;-81
2023/07/02 12:10:12;;;;;;;3.10;1.40;;;;;;;;;;108131;1251;23313;-81
2023/07/02 12:12:39;;;;;;;1.80;1.30;;;;;;;;;;108153;1252;22614;-81
2023/07/02 12:15:05;;;;;;;3.20;1.30;;;;;;;;;;108157;1253;24394;-81
2023/07/02 12:17:31;;;;;;;1.90;1.10;;;;;;;;;;108139;1251;22552;-81
2023/07/02 12:19:58;;;;;;;2.30;1.30;;;;;;;;;;108124;1255;23258;-81
2023/07/02 12:22:24;;;;;;;4.20;1.40;;;;;;;;;;108206;1251;22618;-82
2023/07/02 12:24:53;;;;;;;3.20;1.60;;;;;;;;;;108089;1252;22618;-82
2023/07/02 12:27:19;;;;;;;1.90;1.20;;;;;;;;;;108124;1251;24353;-81
2023/07/02 12:29:46;;;;;;;1.30;1.00;;;;;;;;;;108124;1251;22618;-82
2023/07/02 12:32:13;;;;;;;1.80;1.20;;;;;;;;;;108188;1251;22573;-81
2023/07/02 12:34:39;;;;;;;1.40;1.10;;;;;;;;;;108102;1253;22644;-81
2023/07/02 12:37:05;;;;;;;2.90;1.30;;;;;;;;;;108235;1251;25021;-82
2023/07/02 12:39:32;;;;;;;1.50;1.10;;;;;;;;;;108230;1251;22541;-82
2023/07/02 12:41:58;;;;;;;1.60;0.90;;;;;;;;;;108210;1251;22552;-82
2023/07/02 12:44:25;;;;;;;4.20;1.40;;;;;;;;;;108099;1251;23335;-82
2023/07/02 12:46:52;;;;;;;1.20;1.10;;;;;;;;;;108000;1251;24389;-82
2023/07/02 12:49:18;;;;;;;1.20;1.00;;;;;;;;;;108146;1251;22547;-81
2023/07/02 12:51:45;;;;;;;1.60;1.00;;;;;;;;;;108196;1255;25501;-82
2023/07/02 12:54:11;;;;;;;2.60;1.30;;;;;;;;;;108191;1253;25436;-82
2023/07/02 12:56:38;;;;;;;1.60;1.00;;;;;;;;;;108094;1255;25233;-81
2023/07/02 12:59:04;;;;;;;2.20;1.10;;;;;;;;;;108169;1255;24434;-81
2023/07/02 13:01:31;;;;;;;1.60;1.00;;;;;;;;;;108251;1251;23116;-83
2023/07/02 13:03:58;;;;;;;1.90;1.20;;;;;;;;;;108088;1256;24427;-82
2023/07/02 13:06:24;;;;;;;2.20;1.20;;;;;;;;;;108167;1251;24363;-82
2023/07/02 13:08:50;;;;;;;1.60;1.10;;;;;;;;;;108729;1255;23034;-81
2023/07/02 13:11:17;;;;;;;3.70;1.00;;;;;;;;;;108227;1255;22583;-82
2023/07/02 13:13:43;;;;;;;3.00;0.90;;;;;;;;;;108003;1253;25626;-82
2023/07/02 13:16:10;;;;;;;2.00;0.90;;;;;;;;;;108201;1252;22625;-82
2023/07/02 13:18:36;;;;;;;1.40;0.80;;;;;;;;;;108172;1251;22525;-82
2023/07/02 13:21:03;;;;;;;1.20;0.90;;;;;;;;;;108162;1253;25211;-82
2023/07/02 13:23:29;;;;;;;1.00;0.90;;;;;;;;;;108022;1252;22564;-82
2023/07/02 13:25:55;;;;;;;1.80;1.30;;;;;;;;;;108164;1251;24250;-82
2023/07/02 13:28:23;;;;;;;1.40;1.00;;;;;;;;;;108702;1255;22561;-82
2023/07/02 13:30:49;;;;;;;0.70;0.70;;;;;;;;;;108336;1254;22554;-82
2023/07/02 13:33:16;;;;;;;1.10;0.70;;;;;;;;;;108138;1251;22553;-82
2023/07/02 13:35:43;;;;;;;2.10;0.70;;;;;;;;;;108190;1255;25414;-82
2023/07/02 13:38:10;;;;;;;2.70;1.00;;;;;;;;;;108166;1253;22537;-82
2023/07/02 13:40:36;;;;;;;2.50;1.10;;;;;;;;;;108210;1251;22619;-82
2023/07/02 13:43:03;;;;;;;1.20;0.90;;;;;;;;;;108013;1258;22528;-82
2023/07/02 13:45:29;;;;;;;3.10;1.30;;;;;;;;;;108219;1256;25374;-81
2023/07/02 13:47:55;;;;;;;2.40;1.30;;;;;;;;;;108217;1251;22679;-82
2023/07/02 13:50:22;;;;;;;1.30;0.90;;;;;;;;;;108176;1251;23158;-82
2023/07/02 13:52:49;;;;;;;1.70;1.20;;;;;;;;;;108066;1251;23007;-81
2023/07/02 13:55:16;;;;;;;1.70;1.20;;;;;;;;;;108156;1251;22704;-81
2023/07/02 13:57:42;;;;;;;5.10;1.10;;;;;;;;;;108168;1255;24378;-82
2023/07/02 14:00:09;;;;;;;8.90;1.40;;;;;;;;;;108121;1251;23310;-82
2023/07/02 14:02:35;;;;;;;9.00;1.90;;;;;;;;;;108217;1251;22527;-82
2023/07/02 14:05:02;;;;;;;5.30;1.60;;;;;;;;;;108131;1256;22544;-82
2023/07/02 14:07:28;;;;;;;6.60;1.50;;;;;;;;;;108189;1251;25264;-82
2023/07/02 14:09:55;;;;;;;7.70;1.60;;;;;;;;;;108221;1251;25360;-81
2023/07/02 14:12:22;;;;;;;5.80;1.60;;;;;;;;;;108204;1251;24398;-81
2023/07/02 14:14:48;;;;;;;9.70;1.20;;;;;;;;;;108255;1254;22647;-81
2023/07/02 14:17:14;;;;;;;2.60;1.30;;;;;;;;;;108212;1250;23001;-81